createdAt,value
2023-02-25T00:01:31.613Z,58.60
2023-02-25T00:03:59.686Z,58.05
2023-02-25T00:06:27.256Z,57.50
2023-02-25T00:08:58.080Z,58.08
2023-02-25T00:11:26.316Z,57.92
2023-02-25T00:13:53.940Z,57.78
2023-02-25T00:16:25.342Z,58.22
2023-02-25T00:18:56.982Z,57.30
2023-02-25T00:21:25.545Z,57.47
2023-02-25T00:23:53.690Z,57.50
2023-02-25T00:26:22.050Z,57.58
2023-02-25T00:28:50.136Z,57.03
2023-02-25T00:31:20.802Z,57.17
2023-02-25T00:33:49.184Z,55.58
2023-02-25T00:36:25.005Z,57.40
2023-02-25T00:39:01.635Z,58.50
2023-02-25T00:41:30.878Z,58.38
2023-02-25T00:44:00.280Z,56.97
2023-02-25T00:46:30.031Z,58.90
2023-02-25T00:48:58.959Z,58.47
2023-02-25T00:51:32.541Z,58.72
2023-02-25T00:53:59.944Z,60.90
2023-02-25T00:56:27.697Z,64.15
2023-02-25T00:58:57.845Z,65.75
2023-02-25T01:01:26.566Z,69.72
2023-02-25T01:03:56.543Z,71.22
2023-02-25T01:06:29.685Z,68.10
2023-02-25T01:08:58.312Z,69.00
2023-02-25T01:11:32.351Z,68.93
2023-02-25T01:14:05.402Z,68.50
2023-02-25T01:16:34.259Z,69.95
2023-02-25T01:19:08.084Z,68.68
2023-02-25T01:21:39.430Z,67.55
2023-02-25T01:24:30.209Z,71.35
2023-02-25T01:27:15.705Z,66.38
2023-02-25T01:29:43.752Z,68.18
2023-02-25T01:32:14.143Z,68.90
2023-02-25T01:34:41.955Z,72.20
2023-02-25T01:37:10.030Z,69.68
2023-02-25T01:39:41.384Z,73.55
2023-02-25T01:42:14.988Z,73.05
2023-02-25T01:45:19.469Z,72.45
2023-02-25T01:47:51.932Z,73.00
2023-02-25T01:50:22.539Z,75.43
2023-02-25T01:52:51.284Z,73.22
2023-02-25T01:55:18.716Z,73.35
2023-02-25T01:57:46.201Z,73.85
2023-02-25T02:00:18.190Z,76.97
2023-02-25T02:02:49.649Z,75.93
2023-02-25T02:05:19.527Z,73.85
2023-02-25T02:07:47.235Z,77.22
2023-02-25T02:10:14.616Z,74.60
2023-02-25T02:12:44.998Z,75.13
2023-02-25T02:15:15.117Z,74.32
2023-02-25T02:17:48.259Z,76.30
2023-02-25T02:20:26.504Z,76.47
2023-02-25T02:23:32.459Z,75.72
2023-02-25T02:26:16.563Z,78.78
2023-02-25T02:29:15.614Z,77.35
2023-02-25T02:32:07.908Z,74.80
2023-02-25T02:34:59.930Z,80.75
2023-02-25T02:37:40.849Z,79.93
2023-02-25T02:40:46.652Z,80.28
2023-02-25T02:43:37.494Z,77.38
2023-02-25T02:46:27.834Z,78.70
2023-02-25T02:49:06.376Z,78.82
2023-02-25T02:51:45.130Z,79.25
2023-02-25T02:54:14.628Z,75.85
2023-02-25T02:56:46.970Z,75.85
2023-02-25T02:59:31.394Z,77.55
2023-02-25T03:02:06.520Z,75.65
2023-02-25T03:04:39.217Z,72.53
2023-02-25T03:07:10.009Z,73.70
2023-02-25T03:09:45.069Z,73.07
2023-02-25T03:12:12.548Z,71.43
2023-02-25T03:14:39.993Z,73.95
2023-02-25T03:17:28.548Z,68.78
2023-02-25T03:20:08.335Z,63.63
2023-02-25T03:22:41.473Z,59.10
2023-02-25T03:25:27.155Z,56.40
2023-02-25T03:27:57.482Z,53.17
2023-02-25T03:30:39.877Z,50.08
2023-02-25T03:33:48.482Z,42.97
2023-02-25T03:36:31.386Z,43.83
2023-02-25T03:39:06.155Z,43.25
2023-02-25T03:41:37.950Z,43.35
2023-02-25T03:44:11.662Z,43.15
2023-02-25T03:46:43.127Z,42.72
2023-02-25T03:49:19.215Z,44.25
2023-02-25T03:51:48.224Z,44.30
2023-02-25T03:54:16.733Z,44.40
2023-02-25T03:56:48.862Z,44.90
2023-02-25T03:59:18.739Z,45.63
2023-02-25T04:01:49.773Z,45.30
2023-02-25T04:04:17.107Z,46.85
2023-02-25T04:06:44.398Z,47.28
2023-02-25T04:09:14.185Z,46.53
2023-02-25T04:11:44.698Z,46.95
2023-02-25T04:14:12.007Z,46.13
2023-02-25T04:16:39.363Z,46.10
2023-02-25T04:19:07.510Z,48.72
2023-02-25T04:21:37.398Z,46.05
2023-02-25T04:24:06.890Z,46.53
2023-02-25T04:26:35.344Z,46.35
2023-02-25T04:29:03.869Z,46.88
2023-02-25T04:31:31.297Z,47.10
2023-02-25T04:33:58.812Z,46.00
2023-02-25T04:36:32.066Z,44.85
2023-02-25T04:39:01.776Z,44.30
2023-02-25T04:41:35.515Z,44.58
2023-02-25T04:44:04.151Z,45.53
2023-02-25T04:46:35.007Z,46.15
2023-02-25T04:49:02.569Z,43.78
2023-02-25T04:51:29.931Z,44.20
2023-02-25T04:53:57.377Z,45.55
2023-02-25T04:56:25.623Z,43.75
2023-02-25T04:58:54.021Z,42.03
2023-02-25T05:01:21.524Z,43.55
2023-02-25T05:03:49.250Z,43.13
2023-02-25T05:06:16.472Z,41.85
2023-02-25T05:08:46.144Z,41.35
2023-02-25T05:11:13.523Z,40.25
2023-02-25T05:13:40.803Z,42.10
2023-02-25T05:16:10.931Z,41.90
2023-02-25T05:18:41.045Z,41.08
2023-02-25T05:21:10.619Z,42.55
2023-02-25T05:23:39.583Z,42.05
2023-02-25T05:26:07.080Z,42.90
2023-02-25T05:28:34.823Z,41.05
2023-02-25T05:31:12.001Z,41.85
2023-02-25T05:33:40.294Z,41.47
2023-02-25T05:36:11.536Z,41.75
2023-02-25T05:38:39.300Z,40.42
2023-02-25T05:41:07.499Z,41.30
2023-02-25T05:43:35.971Z,40.03
2023-02-25T05:46:04.954Z,41.85
2023-02-25T05:48:32.698Z,41.33
2023-02-25T05:51:06.256Z,41.55
2023-02-25T05:53:36.566Z,41.38
2023-02-25T05:56:05.801Z,42.13
2023-02-25T05:58:35.382Z,41.42
2023-02-25T06:01:14.286Z,39.50
2023-02-25T06:03:43.102Z,41.47
2023-02-25T06:06:15.042Z,41.20
2023-02-25T06:11:16.977Z,39.15
2023-02-25T06:13:44.325Z,38.67
2023-02-25T06:16:14.807Z,38.65
2023-02-25T06:18:42.213Z,39.80
2023-02-25T06:21:11.742Z,39.72
2023-02-25T06:23:40.824Z,38.80
2023-02-25T06:26:10.285Z,38.63
2023-02-25T06:28:38.468Z,36.75
2023-02-25T06:31:16.907Z,36.75
2023-02-25T06:33:46.812Z,35.88
2023-02-25T06:36:15.554Z,35.35
2023-02-25T06:38:46.025Z,34.40
2023-02-25T06:41:18.571Z,34.78
2023-02-25T06:43:46.697Z,32.58
2023-02-25T06:46:15.140Z,33.03
2023-02-25T06:48:42.593Z,33.40
2023-02-25T06:51:11.601Z,34.47
2023-02-25T06:53:40.739Z,34.42
2023-02-25T06:56:09.305Z,35.22
2023-02-25T06:58:37.473Z,33.03
2023-02-25T07:01:13.943Z,32.13
2023-02-25T07:03:43.581Z,32.45
2023-02-25T07:06:12.031Z,33.10
2023-02-25T07:08:39.831Z,31.67
2023-02-25T07:11:31.640Z,32.20
2023-02-25T07:13:59.146Z,32.30
2023-02-25T07:16:27.190Z,31.42
2023-02-25T07:18:55.621Z,32.80
2023-02-25T07:21:23.296Z,31.00
2023-02-25T07:23:50.621Z,31.27
2023-02-25T07:26:17.942Z,32.17
2023-02-25T07:28:45.666Z,32.63
2023-02-25T07:31:15.549Z,32.55
2023-02-25T07:33:43.026Z,31.40
2023-02-25T07:36:11.359Z,31.55
2023-02-25T07:38:39.127Z,31.80
2023-02-25T07:41:12.470Z,31.23
2023-02-25T07:43:40.594Z,31.65
2023-02-25T07:46:10.597Z,31.02
2023-02-25T07:48:37.916Z,31.90
2023-02-25T07:51:17.187Z,32.05
2023-02-25T07:53:45.896Z,31.33
2023-02-25T07:56:14.070Z,32.03
2023-02-25T07:58:41.444Z,31.15
2023-02-25T08:01:10.174Z,32.30
2023-02-25T08:03:38.331Z,31.85
2023-02-25T08:06:08.143Z,31.25
2023-02-25T08:08:36.969Z,31.30
2023-02-25T08:11:08.711Z,29.98
2023-02-25T08:13:36.377Z,31.13
2023-02-25T08:16:09.106Z,30.40
2023-02-25T08:18:37.187Z,31.98
2023-02-25T08:21:05.420Z,30.70
2023-02-25T08:23:32.737Z,29.60
2023-02-25T08:26:00.632Z,30.80
2023-02-25T08:28:34.366Z,30.33
2023-02-25T08:31:04.558Z,30.17
2023-02-25T08:33:32.029Z,30.83
2023-02-25T08:36:12.398Z,29.45
2023-02-25T08:38:40.272Z,29.88
2023-02-25T08:41:07.717Z,29.88
2023-02-25T08:43:36.411Z,29.33
2023-02-25T08:46:06.344Z,30.10
2023-02-25T08:48:35.353Z,29.33
2023-02-25T08:51:10.640Z,29.85
2023-02-25T08:53:40.653Z,28.85
2023-02-25T08:56:10.945Z,29.30
2023-02-25T08:58:39.505Z,28.55
2023-02-25T09:01:15.037Z,29.17
2023-02-25T09:03:53.635Z,29.08
2023-02-25T09:06:30.522Z,27.25
2023-02-25T09:08:57.940Z,28.45
2023-02-25T09:11:25.959Z,29.13
2023-02-25T09:13:53.768Z,28.25
2023-02-25T09:16:21.618Z,28.85
2023-02-25T09:18:51.327Z,29.05
2023-02-25T09:21:19.864Z,27.85
2023-02-25T09:23:47.460Z,26.55
2023-02-25T09:26:15.311Z,23.55
2023-02-25T09:28:42.855Z,23.15
2023-02-25T09:31:10.335Z,24.50
2023-02-25T09:33:38.069Z,24.58
2023-02-25T09:36:08.602Z,25.63
2023-02-25T09:38:37.679Z,25.27
2023-02-25T09:41:22.345Z,26.13
2023-02-25T09:44:05.697Z,25.02
2023-02-25T09:46:37.277Z,22.63
2023-02-25T09:49:21.367Z,22.33
2023-02-25T09:51:59.997Z,21.50
2023-02-25T09:54:34.346Z,20.42
2023-02-25T09:57:04.567Z,20.27
2023-02-25T09:59:32.354Z,20.65
2023-02-25T10:02:16.368Z,23.45
2023-02-25T10:04:50.973Z,24.48
2023-02-25T10:07:33.904Z,24.23
2023-02-25T10:10:21.732Z,26.88
2023-02-25T10:12:49.054Z,26.02
2023-02-25T10:15:35.180Z,26.90
2023-02-25T10:18:31.663Z,25.25
2023-02-25T10:21:37.824Z,24.15
2023-02-25T10:24:14.398Z,23.70
2023-02-25T10:26:49.495Z,23.17
2023-02-25T10:29:28.211Z,23.45
2023-02-25T10:32:00.567Z,23.35
2023-02-25T10:34:30.288Z,23.63
2023-02-25T10:37:00.137Z,23.88
2023-02-25T10:39:28.534Z,21.95
2023-02-25T10:41:56.315Z,21.70
2023-02-25T10:44:23.702Z,21.58
2023-02-25T10:47:03.304Z,21.67
2023-02-25T10:49:37.950Z,21.70
2023-02-25T10:52:15.120Z,20.75
2023-02-25T10:54:53.138Z,18.98
2023-02-25T10:57:26.360Z,20.00
2023-02-25T11:00:01.790Z,19.90
2023-02-25T11:02:31.775Z,19.63
2023-02-25T11:04:59.205Z,19.67
2023-02-25T11:07:40.056Z,18.63
2023-02-25T11:10:22.010Z,17.17
2023-02-25T11:12:52.481Z,19.23
2023-02-25T11:15:44.295Z,17.67
2023-02-25T11:18:31.011Z,16.92
2023-02-25T11:21:02.469Z,16.70
2023-02-25T11:23:32.583Z,17.58
2023-02-25T11:26:00.188Z,17.10
2023-02-25T11:28:35.902Z,14.70
2023-02-25T11:31:19.114Z,15.75
2023-02-25T11:33:53.365Z,17.75
2023-02-25T11:36:23.939Z,16.35
2023-02-25T11:39:21.161Z,15.55
2023-02-25T11:41:51.247Z,14.55
2023-02-25T11:44:44.524Z,14.45
2023-02-25T11:47:38.556Z,14.07
2023-02-25T11:50:14.738Z,11.77
2023-02-25T11:53:23.035Z,11.73
2023-02-25T11:56:03.027Z,12.05
2023-02-25T11:58:33.042Z,11.20
2023-02-25T12:01:25.060Z,11.32
2023-02-25T12:04:11.057Z,10.02
2023-02-25T12:06:38.250Z,10.18
2023-02-25T12:09:30.629Z,10.45
2023-02-25T12:14:34.089Z,9.95
2023-02-25T12:17:35.062Z,10.30
2023-02-25T12:20:24.058Z,9.48
2023-02-25T12:23:31.672Z,9.77
2023-02-25T12:26:14.563Z,10.15
2023-02-25T12:29:15.674Z,10.10
2023-02-25T12:32:11.732Z,9.63
2023-02-25T12:35:23.549Z,10.20
2023-02-25T12:38:03.045Z,10.52
2023-02-25T12:40:53.184Z,10.18
2023-02-25T12:44:02.758Z,10.13
2023-02-25T12:47:02.100Z,9.27
2023-02-25T12:49:47.932Z,8.63
2023-02-25T12:52:24.934Z,9.23
2023-02-25T12:55:13.792Z,7.93
2023-02-25T12:57:53.249Z,8.55
2023-02-25T13:00:51.865Z,8.45
2023-02-25T13:03:36.806Z,9.60
2023-02-25T13:06:22.648Z,9.43
2023-02-25T13:09:01.165Z,9.88
2023-02-25T13:12:10.589Z,9.88
2023-02-25T13:14:56.971Z,9.93
2023-02-25T13:17:55.236Z,9.32
2023-02-25T13:20:53.327Z,9.93
2023-02-25T13:23:58.701Z,9.25
2023-02-25T13:26:50.162Z,9.52
2023-02-25T13:29:44.820Z,10.43
2023-02-25T13:32:26.540Z,10.10
2023-02-25T13:35:09.978Z,10.52
2023-02-25T13:37:54.822Z,10.30
2023-02-25T13:40:44.907Z,11.00
2023-02-25T13:43:45.903Z,12.05
2023-02-25T13:46:28.594Z,12.20
2023-02-25T13:49:19.227Z,10.93
2023-02-25T13:52:09.521Z,12.10
2023-02-25T13:55:02.696Z,12.27
2023-02-25T13:57:35.969Z,12.38
2023-02-25T14:00:37.373Z,11.77
2023-02-25T14:03:43.130Z,11.13
2023-02-25T14:06:35.733Z,11.30
2023-02-25T14:09:09.426Z,10.93
2023-02-25T14:11:45.686Z,11.23
2023-02-25T14:14:25.008Z,11.60
2023-02-25T14:17:01.557Z,12.18
2023-02-25T14:19:31.616Z,11.82
2023-02-25T14:22:20.147Z,11.23
2023-02-25T14:25:08.099Z,11.93
2023-02-25T14:27:53.493Z,11.88
2023-02-25T14:30:37.336Z,11.98
2023-02-25T14:33:23.333Z,11.98
2023-02-25T14:36:26.606Z,12.70
2023-02-25T14:39:06.664Z,12.45
2023-02-25T14:42:02.910Z,12.68
2023-02-25T14:44:50.691Z,13.27
2023-02-25T14:47:22.577Z,13.63
2023-02-25T14:49:58.945Z,13.18
2023-02-25T14:52:35.242Z,14.05
2023-02-25T14:55:16.049Z,13.43
2023-02-25T14:58:06.243Z,12.93
2023-02-25T15:01:01.185Z,13.10
2023-02-25T15:03:31.125Z,14.18
2023-02-25T15:06:10.281Z,14.23
2023-02-25T15:09:08.310Z,13.93
2023-02-25T15:11:53.748Z,14.80
2023-02-25T15:14:45.459Z,13.73
2023-02-25T15:17:44.024Z,15.82
2023-02-25T15:20:27.648Z,15.18
2023-02-25T15:23:05.241Z,15.80
2023-02-25T15:25:53.923Z,15.18
2023-02-25T15:28:30.382Z,15.35
2023-02-25T15:31:01.051Z,16.30
2023-02-25T15:33:47.590Z,17.65
2023-02-25T15:36:14.842Z,16.13
2023-02-25T15:38:53.483Z,16.42
2023-02-25T15:41:26.601Z,16.98
2023-02-25T15:44:21.533Z,17.17
2023-02-25T15:46:49.881Z,17.42
2023-02-25T15:49:17.185Z,17.23
2023-02-25T15:51:53.716Z,18.65
2023-02-25T15:54:29.987Z,18.25
2023-02-25T15:57:03.171Z,18.17
2023-02-25T15:59:46.887Z,18.15
2023-02-25T16:02:26.461Z,18.13
2023-02-25T16:05:01.913Z,17.50
2023-02-25T16:07:47.183Z,17.73
2023-02-25T16:10:30.429Z,18.27
2023-02-25T16:12:58.469Z,19.10
2023-02-25T16:15:45.321Z,19.13
2023-02-25T16:18:34.097Z,17.85
2023-02-25T16:21:14.497Z,18.20
2023-02-25T16:23:43.035Z,17.90
2023-02-25T16:26:28.531Z,17.40
2023-02-25T16:28:58.821Z,18.38
2023-02-25T16:31:44.165Z,19.50
2023-02-25T16:34:22.809Z,21.27
2023-02-25T16:37:01.642Z,20.70
2023-02-25T16:39:31.281Z,21.33
2023-02-25T16:42:04.692Z,20.98
2023-02-25T16:44:38.472Z,21.52
2023-02-25T16:47:22.662Z,21.85
2023-02-25T16:49:51.907Z,21.45
2023-02-25T16:52:30.334Z,21.38
2023-02-25T16:55:00.624Z,21.50
2023-02-25T16:57:28.163Z,21.55
2023-02-25T17:00:06.211Z,21.15
2023-02-25T17:02:47.472Z,22.70
2023-02-25T17:05:33.046Z,21.20
2023-02-25T17:08:03.916Z,21.80
2023-02-25T17:10:45.936Z,22.75
2023-02-25T17:13:29.334Z,24.95
2023-02-25T17:15:57.126Z,28.63
2023-02-25T17:18:32.679Z,27.92
2023-02-25T17:21:20.388Z,29.27
2023-02-25T17:23:48.233Z,29.70
2023-02-25T17:26:16.280Z,31.17
2023-02-25T17:28:48.733Z,33.13
2023-02-25T17:31:26.654Z,34.35
2023-02-25T17:34:00.833Z,37.85
2023-02-25T17:36:39.811Z,40.47
2023-02-25T17:39:12.526Z,41.40
2023-02-25T17:41:41.864Z,41.55
2023-02-25T17:44:32.885Z,42.20
2023-02-25T17:47:00.242Z,41.33
2023-02-25T17:49:33.157Z,40.83
2023-02-25T17:52:04.528Z,42.15
2023-02-25T17:54:37.305Z,42.60
2023-02-25T17:57:22.147Z,41.97
2023-02-25T17:59:53.146Z,42.85
2023-02-25T18:02:23.279Z,43.13
2023-02-25T18:05:22.345Z,40.70
2023-02-25T18:08:27.483Z,41.67
2023-02-25T18:11:12.878Z,40.70
2023-02-25T18:13:40.277Z,41.25
2023-02-25T18:16:23.782Z,42.47
2023-02-25T18:18:52.079Z,42.75
2023-02-25T18:21:21.390Z,41.45
2023-02-25T18:23:53.352Z,42.65
2023-02-25T18:28:52.548Z,40.63
2023-02-25T18:31:20.378Z,41.03
2023-02-25T18:33:48.339Z,42.70
2023-02-25T18:36:23.536Z,41.88
2023-02-25T18:38:54.395Z,40.58
2023-02-25T18:41:22.408Z,40.38
2023-02-25T18:43:49.749Z,41.72
2023-02-25T18:46:17.105Z,41.88
2023-02-25T18:48:44.505Z,40.30
2023-02-25T18:51:14.163Z,41.35
2023-02-25T18:53:42.045Z,41.35
2023-02-25T18:56:16.041Z,40.22
2023-02-25T18:58:44.469Z,41.28
2023-02-25T19:01:23.485Z,40.25
2023-02-25T19:03:51.420Z,42.63
2023-02-25T19:06:18.731Z,42.10
2023-02-25T19:08:46.418Z,42.03
2023-02-25T19:11:22.776Z,42.65
2023-02-25T19:13:51.136Z,41.08
2023-02-25T19:16:19.315Z,44.72
2023-02-25T19:18:47.421Z,46.50
2023-02-25T19:21:17.883Z,45.05
2023-02-25T19:23:45.979Z,42.88
2023-02-25T19:26:14.673Z,45.30
2023-02-25T19:28:42.169Z,46.45
2023-02-25T19:31:09.845Z,46.70
2023-02-25T19:33:37.268Z,43.72
2023-02-25T19:36:04.986Z,45.28
2023-02-25T19:38:32.374Z,43.95
2023-02-25T19:41:06.047Z,45.05
2023-02-25T19:43:34.098Z,43.50
2023-02-25T19:46:08.227Z,45.88
2023-02-25T19:48:38.940Z,44.13
2023-02-25T19:51:08.306Z,44.08
2023-02-25T19:53:36.619Z,44.75
2023-02-25T19:56:05.402Z,45.20
2023-02-25T19:58:33.318Z,43.63
2023-02-25T20:01:06.678Z,46.28
2023-02-25T20:03:35.282Z,45.40
2023-02-25T20:06:12.941Z,44.55
2023-02-25T20:08:40.676Z,43.40
2023-02-25T20:11:09.929Z,45.80
2023-02-25T20:13:38.476Z,44.03
2023-02-25T20:16:06.290Z,43.33
2023-02-25T20:18:33.623Z,45.03
2023-02-25T20:21:00.965Z,43.85
2023-02-25T20:23:28.204Z,43.80
2023-02-25T20:26:13.146Z,44.95
2023-02-25T20:28:41.335Z,42.58
2023-02-25T20:31:16.991Z,43.70
2023-02-25T20:33:44.446Z,44.33
2023-02-25T20:36:29.673Z,42.70
2023-02-25T20:39:20.582Z,45.75
2023-02-25T20:41:48.269Z,41.13
2023-02-25T20:44:18.603Z,44.15
2023-02-25T20:46:46.474Z,44.03
2023-02-25T20:49:15.948Z,45.25
2023-02-25T20:51:45.947Z,45.92
2023-02-25T20:54:16.228Z,44.72
2023-02-25T20:56:44.087Z,44.13
2023-02-25T20:59:14.200Z,43.47
2023-02-25T21:01:41.984Z,44.42
2023-02-25T21:04:09.933Z,44.10
2023-02-25T21:06:38.214Z,43.88
2023-02-25T21:09:06.716Z,43.08
2023-02-25T21:11:34.461Z,44.85
2023-02-25T21:14:01.831Z,46.72
2023-02-25T21:16:47.846Z,45.25
2023-02-25T21:19:15.180Z,45.50
2023-02-25T21:21:43.443Z,43.83
2023-02-25T21:24:12.365Z,45.20
2023-02-25T21:26:39.782Z,43.67
2023-02-25T21:29:08.392Z,44.38
2023-02-25T21:31:36.479Z,44.10
2023-02-25T21:34:04.997Z,44.42
2023-02-25T21:36:35.337Z,44.85
2023-02-25T21:39:02.929Z,44.55
2023-02-25T21:41:30.417Z,44.35
2023-02-25T21:43:58.005Z,45.00
2023-02-25T21:46:25.711Z,44.95
2023-02-25T21:48:55.317Z,45.20
2023-02-25T21:51:25.185Z,44.00
2023-02-25T21:54:00.163Z,44.65
2023-02-25T21:56:29.227Z,45.00
2023-02-25T21:58:58.584Z,45.13
2023-02-25T22:01:29.202Z,45.13
2023-02-25T22:03:57.098Z,46.35
2023-02-25T22:06:26.253Z,45.45
2023-02-25T22:08:54.506Z,46.03
2023-02-25T22:11:33.801Z,45.20
2023-02-25T22:14:03.076Z,45.95
2023-02-25T22:16:30.438Z,44.70
2023-02-25T22:18:58.035Z,45.72
2023-02-25T22:21:28.002Z,48.08
2023-02-25T22:23:58.310Z,45.47
2023-02-25T22:26:28.449Z,44.40
2023-02-25T22:28:57.905Z,46.45
2023-02-25T22:31:26.318Z,44.47
2023-02-25T22:33:55.129Z,43.97
2023-02-25T22:36:23.026Z,45.42
2023-02-25T22:38:50.748Z,43.92
2023-02-25T22:41:23.733Z,45.05
2023-02-25T22:43:51.646Z,46.20
2023-02-25T22:46:28.312Z,46.10
2023-02-25T22:48:58.697Z,43.42
2023-02-25T22:51:32.868Z,44.90
2023-02-25T22:54:00.235Z,44.63
2023-02-25T22:56:28.270Z,44.50
2023-02-25T22:58:55.931Z,43.58
2023-02-25T23:01:24.901Z,45.15
2023-02-25T23:03:53.595Z,44.00
2023-02-25T23:06:42.137Z,43.80
2023-02-25T23:09:11.750Z,42.95
2023-02-25T23:11:41.524Z,45.40
2023-02-25T23:14:10.266Z,43.35
2023-02-25T23:16:43.165Z,43.65
2023-02-25T23:19:16.918Z,45.22
2023-02-25T23:21:44.844Z,44.33
2023-02-25T23:24:19.680Z,46.33
2023-02-25T23:26:50.633Z,44.53
2023-02-25T23:29:18.554Z,44.88
2023-02-25T23:31:47.545Z,45.95
2023-02-25T23:34:19.764Z,44.40
2023-02-25T23:36:47.526Z,43.58
2023-02-25T23:39:15.723Z,44.78
2023-02-25T23:41:46.081Z,43.95
2023-02-25T23:44:14.341Z,45.47
2023-02-25T23:46:43.119Z,44.92
2023-02-25T23:49:16.293Z,44.53
2023-02-25T23:51:46.255Z,44.75
2023-02-25T23:54:16.762Z,44.42
2023-02-25T23:56:47.563Z,43.95
2023-02-25T23:59:15.703Z,43.78
